Hugh R. Sharp — WDC9608 — position and weather

sailwx.info

Track history (hours):
 
Tides and Currents Weather Stations Pressure Air Temp Water Temp Dewpoint Dewpoint Depression Visibility Wind Speed Wind Dir Waves Ship Positions

Oceanographic research ship Hugh R. Sharp (USA)

Ship's website: http://www.ceoe.udel.edu/marine/rvSharp.shtml

Detailed information on ship capabilities available from University of Delaware's Ocean Information Center.

Owner: Warrior & yGulf Navigation Compan, Chickasaw, AL. More information available from US FCC via Universal Licensing System and Coast Guard Vessel Documentation Center.

Last reported at 2017-Jun-28 17:50 UTC. Time now 2017-Jul-22 12:47 UTC.
Position N 25°24' W 080°07'.
Warning: this ship's position is 23 days out of date.

Length 40 m; draft 4 m.

Type: Other ship. MMSI: 367063060.

Date/timePositionNaut miles runAvg speedWind from/ knotsBaromVisibWave heightAir tempDewpointWater temp
2017-Jun-28 17:50N 25°24' W 080°07'3 7.9
2017-Jun-28 17:30N 25°26' W 080°06'4 7.4
2017-Jun-28 17:01N 25°30' W 080°06'4 8.8
2017-Jun-28 16:30N 25°34' W 080°06'5 9.0
2017-Jun-28 16:00N 25°39' W 080°05'5 9.3
2017-Jun-28 15:30N 25°43' W 080°05'5 9.5
2017-Jun-28 15:01N 25°48' W 080°05'9 9.0
2017-Jun-28 14:00N 25°57' W 080°06'5 9.3
2017-Jun-28 13:31N 26°02' W 080°06'5 9.0
2017-Jun-28 13:01N 26°06' W 080°05'4 8.8
2017-Jun-28 12:30N 26°10' W 080°05'5 9.8
2017-Jun-28 12:00N 26°15' W 080°04'510.0
2017-Jun-28 11:30N 26°20' W 080°04'5 9.2
2017-Jun-28 11:00N 26°25' W 080°03'4 8.9
2017-Jun-28 10:31N 26°29' W 080°03'4 8.8
2017-Jun-28 10:01N 26°34' W 080°02'13 8.4
2017-Jun-28 08:27N 26°47' W 080°00'4 8.3
2017-Jun-28 08:00N 26°50' W 080°02'4 9.0
2017-Jun-28 07:30N 26°55' W 080°03'4 8.6
2017-Jun-28 07:00N 26°59' W 080°03'5 9.3
2017-Jun-28 06:31N 27°03' W 080°05'510.2
2017-Jun-28 06:00N 27°08' W 080°06'  
2017-Jun-24 12:16N 38°47' W 075°10'0 0.0
2017-Jun-23 11:04N 38°47' W 075°10'0 0.0
2017-Jun-23 10:55N 38°47' W 075°10'0 0.0
2017-Jun-23 10:31N 38°47' W 075°10'0 0.0
2017-Jun-23 10:01N 38°47' W 075°10'0 0.0
2017-Jun-23 09:30N 38°47' W 075°10'0 0.0
2017-Jun-23 09:00N 38°47' W 075°10'0 0.0
2017-Jun-23 08:30N 38°47' W 075°10'0 0.0
2017-Jun-23 08:00N 38°47' W 075°10'0 0.0
2017-Jun-23 07:30N 38°47' W 075°10'0 0.0
2017-Jun-23 07:00N 38°47' W 075°10'0 0.0
2017-Jun-23 06:30N 38°47' W 075°10'0 0.0
2017-Jun-23 06:00N 38°47' W 075°10'0 0.0
2017-Jun-23 05:27N 38°47' W 075°10'0 0.0
2017-Jun-23 05:00N 38°47' W 075°10'0 0.0
2017-Jun-23 04:30N 38°47' W 075°10'0 0.0
2017-Jun-23 04:00N 38°47' W 075°10'0 0.0
2017-Jun-23 03:30N 38°47' W 075°10'0 0.0
2017-Jun-23 03:00N 38°47' W 075°10'0 0.0
2017-Jun-23 01:51N 38°47' W 075°10'0 0.0
2017-Jun-22 22:12N 38°47' W 075°10'3 7.3
2017-Jun-22 21:46N 38°49' W 075°06'311.5
2017-Jun-22 21:30N 38°48' W 075°02'710.9
2017-Jun-22 20:50N 38°50' W 074°53'4 9.8
2017-Jun-22 20:23N 38°52' W 074°48'4 9.9
2017-Jun-22 19:58N 38°56' W 074°45'5 9.6
2017-Jun-22 19:26N 38°60' W 074°41'4 9.7
2017-Jun-22 19:00N 39°02' W 074°37'5 9.6
2017-Jun-22 18:30N 39°06' W 074°32'5 9.4
2017-Jun-22 18:00N 39°09' W 074°28'5 9.2
2017-Jun-22 17:27N 39°12' W 074°23'4 9.4
2017-Jun-22 16:59N 39°15' W 074°18'5 9.5
2017-Jun-22 16:25N 39°18' W 074°13'4 9.5
2017-Jun-22 15:58N 39°20' W 074°08'6 9.3
2017-Jun-22 15:20N 39°24' W 074°02'5 9.1
2017-Jun-22 14:44N 39°27' W 073°57'2 9.2
2017-Jun-22 14:30N 39°29' W 073°55'9 9.2
2017-Jun-22 13:30N 39°35' W 073°46'5 9.3
2017-Jun-22 13:00N 39°38' W 073°41'5 9.3
2017-Jun-22 12:30N 39°40' W 073°36'5 9.3
2017-Jun-22 12:00N 39°44' W 073°32'5 9.3
2017-Jun-22 11:30N 39°47' W 073°27'5 9.3
2017-Jun-22 11:00N 39°50' W 073°22'5 9.4
2017-Jun-22 10:30N 39°53' W 073°18'4 9.3
2017-Jun-22 10:00N 39°56' W 073°13'6 9.2
2017-Jun-22 09:21N 39°59' W 073°07'144 7.1
2017-Jun-21 12:54N 41°32' W 070°40'0 0.0
2017-Jun-21 12:30N 41°32' W 070°40'9 2.6
2017-Jun-21 09:09N 41°29' W 070°29'1 8.2
2017-Jun-21 09:00N 41°29' W 070°28'4 8.4
2017-Jun-21 08:30N 41°28' W 070°22'18 8.6
2017-Jun-21 06:23N 41°26' W 069°58'3 8.8
2017-Jun-21 05:59N 41°25' W 069°54'4 8.9
2017-Jun-21 05:30N 41°25' W 069°48'  
Track history (hours):
 
Tides and Currents Weather Stations Pressure Air Temp Water Temp Dewpoint Dewpoint Depression Visibility Wind Speed Wind Dir Waves Ship Positions

Oceanographic research ship Hugh R. Sharp (USA)

Ship's website: http://www.ceoe.udel.edu/marine/rvSharp.shtml

Detailed information on ship capabilities available from University of Delaware's Ocean Information Center.

Owner: Warrior & yGulf Navigation Compan, Chickasaw, AL. More information available from US FCC via Universal Licensing System and Coast Guard Vessel Documentation Center.

Last reported at 2017-Jun-28 17:50 UTC. Time now 2017-Jul-22 12:47 UTC.
Position N 25°24' W 080°07'.
Warning: this ship's position is 23 days out of date.

Length 40 m; draft 4 m.

Type: Other ship. MMSI: 367063060.

Date/timePositionNaut miles runAvg speedWind from/ knotsBaromVisibWave heightAir tempDewpointWater temp
2017-Jun-28 17:50N 25°24' W 080°07'3 7.9
2017-Jun-28 17:30N 25°26' W 080°06'4 7.4
2017-Jun-28 17:01N 25°30' W 080°06'4 8.8
2017-Jun-28 16:30N 25°34' W 080°06'5 9.0
2017-Jun-28 16:00N 25°39' W 080°05'5 9.3
2017-Jun-28 15:30N 25°43' W 080°05'5 9.5
2017-Jun-28 15:01N 25°48' W 080°05'9 9.0
2017-Jun-28 14:00N 25°57' W 080°06'5 9.3
2017-Jun-28 13:31N 26°02' W 080°06'5 9.0
2017-Jun-28 13:01N 26°06' W 080°05'4 8.8
2017-Jun-28 12:30N 26°10' W 080°05'5 9.8
2017-Jun-28 12:00N 26°15' W 080°04'510.0
2017-Jun-28 11:30N 26°20' W 080°04'5 9.2
2017-Jun-28 11:00N 26°25' W 080°03'4 8.9
2017-Jun-28 10:31N 26°29' W 080°03'4 8.8
2017-Jun-28 10:01N 26°34' W 080°02'13 8.4
2017-Jun-28 08:27N 26°47' W 080°00'4 8.3
2017-Jun-28 08:00N 26°50' W 080°02'4 9.0
2017-Jun-28 07:30N 26°55' W 080°03'4 8.6
2017-Jun-28 07:00N 26°59' W 080°03'5 9.3
2017-Jun-28 06:31N 27°03' W 080°05'510.2
2017-Jun-28 06:00N 27°08' W 080°06'  
2017-Jun-24 12:16N 38°47' W 075°10'0 0.0
2017-Jun-23 11:04N 38°47' W 075°10'0 0.0
2017-Jun-23 10:55N 38°47' W 075°10'0 0.0
2017-Jun-23 10:31N 38°47' W 075°10'0 0.0
2017-Jun-23 10:01N 38°47' W 075°10'0 0.0
2017-Jun-23 09:30N 38°47' W 075°10'0 0.0
2017-Jun-23 09:00N 38°47' W 075°10'0 0.0
2017-Jun-23 08:30N 38°47' W 075°10'0 0.0
2017-Jun-23 08:00N 38°47' W 075°10'0 0.0
2017-Jun-23 07:30N 38°47' W 075°10'0 0.0
2017-Jun-23 07:00N 38°47' W 075°10'0 0.0
2017-Jun-23 06:30N 38°47' W 075°10'0 0.0
2017-Jun-23 06:00N 38°47' W 075°10'0 0.0
2017-Jun-23 05:27N 38°47' W 075°10'0 0.0
2017-Jun-23 05:00N 38°47' W 075°10'0 0.0
2017-Jun-23 04:30N 38°47' W 075°10'0 0.0
2017-Jun-23 04:00N 38°47' W 075°10'0 0.0
2017-Jun-23 03:30N 38°47' W 075°10'0 0.0
2017-Jun-23 03:00N 38°47' W 075°10'0 0.0
2017-Jun-23 01:51N 38°47' W 075°10'0 0.0
2017-Jun-22 22:12N 38°47' W 075°10'3 7.3
2017-Jun-22 21:46N 38°49' W 075°06'311.5
2017-Jun-22 21:30N 38°48' W 075°02'710.9
2017-Jun-22 20:50N 38°50' W 074°53'4 9.8
2017-Jun-22 20:23N 38°52' W 074°48'4 9.9
2017-Jun-22 19:58N 38°56' W 074°45'5 9.6
2017-Jun-22 19:26N 38°60' W 074°41'4 9.7
2017-Jun-22 19:00N 39°02' W 074°37'5 9.6
2017-Jun-22 18:30N 39°06' W 074°32'5 9.4
2017-Jun-22 18:00N 39°09' W 074°28'5 9.2
2017-Jun-22 17:27N 39°12' W 074°23'4 9.4
2017-Jun-22 16:59N 39°15' W 074°18'5 9.5
2017-Jun-22 16:25N 39°18' W 074°13'4 9.5
2017-Jun-22 15:58N 39°20' W 074°08'6 9.3
2017-Jun-22 15:20N 39°24' W 074°02'5 9.1
2017-Jun-22 14:44N 39°27' W 073°57'2 9.2
2017-Jun-22 14:30N 39°29' W 073°55'9 9.2
2017-Jun-22 13:30N 39°35' W 073°46'5 9.3
2017-Jun-22 13:00N 39°38' W 073°41'5 9.3
2017-Jun-22 12:30N 39°40' W 073°36'5 9.3
2017-Jun-22 12:00N 39°44' W 073°32'5 9.3
2017-Jun-22 11:30N 39°47' W 073°27'5 9.3
2017-Jun-22 11:00N 39°50' W 073°22'5 9.4
2017-Jun-22 10:30N 39°53' W 073°18'4 9.3
2017-Jun-22 10:00N 39°56' W 073°13'6 9.2
2017-Jun-22 09:21N 39°59' W 073°07'144 7.1
2017-Jun-21 12:54N 41°32' W 070°40'0 0.0
2017-Jun-21 12:30N 41°32' W 070°40'9 2.6
2017-Jun-21 09:09N 41°29' W 070°29'1 8.2
2017-Jun-21 09:00N 41°29' W 070°28'4 8.4
2017-Jun-21 08:30N 41°28' W 070°22'18 8.6
2017-Jun-21 06:23N 41°26' W 069°58'3 8.8
2017-Jun-21 05:59N 41°25' W 069°54'4 8.9
2017-Jun-21 05:30N 41°25' W 069°48'  

Dump ship's entire track history